Observation data for Seminole on 03/25/2019      Previous  Date  Next       Current Mesonet Observations  Soil Data  Daily Summary Page  Observations in Plain Language
KSM1 250500Z 03003KT 11/M01 A3012 RMK A01 T01071007  RH  045%=      5-min Rain = 0
KSM1 250505Z 03003KT 11/M01 A3012 RMK A01 T01111008  RH  044%=      5-min Rain = 0
KSM1 250510Z 03003KT 11/M01 A3012 RMK A01 T01131009  RH  043%=      5-min Rain = 0
KSM1 250515Z 05003KT 12/M01 A3012 RMK A01 T01161007  RH  043%=      5-min Rain = 0
KSM1 250520Z 04003KT 11/M01 A3012 RMK A01 T01121006  RH  044%=      5-min Rain = 0
KSM1 250525Z 04004KT 11/M00 A3012 RMK A01 T01071002  RH  047%=      5-min Rain = 0
KSM1 250530Z 04004KT 10/M01 A3013 RMK A01 T01041011  RH  045%=      5-min Rain = 0
KSM1 250535Z 05003KT 11/M02 A3013 RMK A01 T01131015  RH  041%=      5-min Rain = 0
KSM1 250540Z 05004KT 12/M02 A3013 RMK A01 T01201019  RH  038%=      5-min Rain = 0
KSM1 250545Z 04005KT 12/M02 A3013 RMK A01 T01221016  RH  039%=      5-min Rain = 0
KSM1 250550Z 01007KT 11/M01 A3013 RMK A01 T01071007  RH  046%=      5-min Rain = 0
KSM1 250555Z 03008KT 10/M01 A3013 RMK A01 T01011009  RH  047%=      5-min Rain = 0
KSM1 250600Z 03007KT 12/M01 A3013 RMK A01 T01151012  RH  042%=      5-min Rain = 0
KSM1 250605Z 05007KT 12/M01 A3013 RMK A01 T01181012  RH  041%=      5-min Rain = 0
KSM1 250610Z 04007KT 12/M01 A3013 RMK A01 T01221011  RH  040%=      5-min Rain = 0
KSM1 250615Z 03007KT 13/M01 A3014 RMK A01 T01291012  RH  038%=      5-min Rain = 0
KSM1 250620Z 04005KT 13/M01 A3014 RMK A01 T01291011  RH  038%=      5-min Rain = 0
KSM1 250625Z 04005KT 13/M01 A3014 RMK A01 T01251012  RH  039%=      5-min Rain = 0
KSM1 250630Z 04005KT 12/M01 A3014 RMK A01 T01201012  RH  040%=      5-min Rain = 0
KSM1 250635Z 03005KT 12/M01 A3014 RMK A01 T01161011  RH  042%=      5-min Rain = 0
KSM1 250640Z 01004KT 11/M00 A3014 RMK A01 T01101004  RH  046%=      5-min Rain = 0
KSM1 250645Z 01004KT 11/M00 A3014 RMK A01 T01081004  RH  047%=      5-min Rain = 0
KSM1 250650Z 01004KT 10/M00 A3013 RMK A01 T01041003  RH  048%=      5-min Rain = 0
KSM1 250655Z 03004KT 11/M01 A3013 RMK A01 T01051005  RH  047%=      5-min Rain = 0
KSM1 250700Z 03005KT 10/M00 A3014 RMK A01 T01021001  RH  049%=      5-min Rain = 0
KSM1 250705Z 02005KT 10/M00 A3014 RMK A01 T00961001  RH  051%=      5-min Rain = 0
KSM1 250710Z 03006KT 10/M01 A3014 RMK A01 T00961005  RH  050%=      5-min Rain = 0
KSM1 250715Z 03006KT 10/M01 A3014 RMK A01 T00951007  RH  049%=      5-min Rain = 0
KSM1 250720Z 03006KT 09/M01 A3014 RMK A01 T00921006  RH  051%=      5-min Rain = 0
KSM1 250725Z 03006KT 10/M01 A3014 RMK A01 T00971007  RH  049%=      5-min Rain = 0
KSM1 250730Z 03005KT 10/M01 A3014 RMK A01 T01001006  RH  048%=      5-min Rain = 0
KSM1 250735Z 03004KT 10/M00 A3014 RMK A01 T01031004  RH  048%=      5-min Rain = 0
KSM1 250740Z 05004KT 10/M00 A3014 RMK A01 T01041003  RH  048%=      5-min Rain = 0
KSM1 250745Z 06003KT 11/M00 A3014 RMK A01 T01051001  RH  048%=      5-min Rain = 0
KSM1 250750Z 05003KT 11/00 A3014 RMK A01 T01070001  RH  048%=      5-min Rain = 0
KSM1 250755Z 05003KT 11/00 A3014 RMK A01 T01080004  RH  049%=      5-min Rain = 0
KSM1 250800Z 05003KT 10/01 A3014 RMK A01 T00990005  RH  053%=      5-min Rain = 0
KSM1 250805Z 04004KT 09/00 A3014 RMK A01 T00850004  RH  057%=      5-min Rain = 0
KSM1 250810Z 04008KT 07/01 A3014 RMK A01 T00740005  RH  062%=      5-min Rain = 0
KSM1 250815Z 05008KT 09/01 A3014 RMK A01 T00860010  RH  060%=      5-min Rain = 0
KSM1 250820Z 05007KT 10/01 A3014 RMK A01 T00960010  RH  056%=      5-min Rain = 0
KSM1 250825Z 05006KT 10/01 A3014 RMK A01 T00990011  RH  055%=      5-min Rain = 0
KSM1 250830Z 05005KT 10/01 A3014 RMK A01 T00990010  RH  055%=      5-min Rain = 0
KSM1 250835Z 05004KT 10/01 A3014 RMK A01 T00970010  RH  055%=      5-min Rain = 0
KSM1 250840Z 05003KT 10/01 A3013 RMK A01 T00970011  RH  056%=      5-min Rain = 0
KSM1 250845Z 03004KT 10/01 A3014 RMK A01 T00950012  RH  057%=      5-min Rain = 0
KSM1 250850Z 03004KT 08/01 A3014 RMK A01 T00840011  RH  061%=      5-min Rain = 0
KSM1 250855Z 04005KT 08/01 A3014 RMK A01 T00790013  RH  064%=      5-min Rain = 0
KSM1 250900Z 01006KT 08/01 A3014 RMK A01 T00810011  RH  062%=      5-min Rain = 0
KSM1 250905Z 03006KT 08/02 A3014 RMK A01 T00830015  RH  063%=      5-min Rain = 0
KSM1 250910Z 01008KT 09/02 A3014 RMK A01 T00910015  RH  060%=      5-min Rain = 0
KSM1 250915Z 35009KT 09/01 A3014 RMK A01 T00860008  RH  059%=      5-min Rain = 0
KSM1 250920Z 36011KT 08/01 A3015 RMK A01 T00820006  RH  060%=      5-min Rain = 0
KSM1 250925Z 01012KT 08/00 A3015 RMK A01 T00830002  RH  057%=      5-min Rain = 0
KSM1 250930Z 00010KT 08/00 A3015 RMK A01 T00830000  RH  057%=      5-min Rain = 0
KSM1 250935Z 01009KT 08/00 A3015 RMK A01 T00790000  RH  058%=      5-min Rain = 0
KSM1 250940Z 00007KT 07/00 A3015 RMK A01 T00730001  RH  061%=      5-min Rain = 0
KSM1 250945Z 01009KT 07/00 A3015 RMK A01 T00680001  RH  063%=      5-min Rain = 0
KSM1 250950Z 02010KT 07/00 A3014 RMK A01 T00690004  RH  064%=      5-min Rain = 0
KSM1 250955Z 01008KT 07/01 A3015 RMK A01 T00710005  RH  064%=      5-min Rain = 0
KSM1 251000Z 01007KT 07/01 A3015 RMK A01 T00680005  RH  065%=      5-min Rain = 0
KSM1 251005Z 00006KT 07/01 A3015 RMK A01 T00680005  RH  065%=      5-min Rain = 0
KSM1 251010Z 01006KT 07/00 A3015 RMK A01 T00670003  RH  064%=      5-min Rain = 0
KSM1 251015Z 02007KT 06/00 A3015 RMK A01 T00610002  RH  067%=      5-min Rain = 0
KSM1 251020Z 01009KT 06/00 A3015 RMK A01 T00590002  RH  068%=      5-min Rain = 0
KSM1 251025Z 01009KT 06/00 A3015 RMK A01 T00620003  RH  066%=      5-min Rain = 0
KSM1 251030Z 01009KT 06/00 A3015 RMK A01 T00600001  RH  067%=      5-min Rain = 0
KSM1 251035Z 02008KT 06/00 A3015 RMK A01 T00620002  RH  066%=      5-min Rain = 0
KSM1 251040Z 01008KT 07/00 A3016 RMK A01 T00660002  RH  065%=      5-min Rain = 0
KSM1 251045Z 00008KT 06/00 A3016 RMK A01 T00620002  RH  066%=      5-min Rain = 0
KSM1 251050Z 00009KT 06/00 A3017 RMK A01 T00600003  RH  067%=      5-min Rain = 0
KSM1 251055Z 36008KT 06/00 A3017 RMK A01 T00600003  RH  067%=      5-min Rain = 0
KSM1 251100Z 33005KT 06/00 A3017 RMK A01 T00640004  RH  066%=      5-min Rain = 0
KSM1 251105Z 34007KT 06/01 A3017 RMK A01 T00610005  RH  068%=      5-min Rain = 0
KSM1 251110Z 36007KT 06/00 A3017 RMK A01 T00560004  RH  070%=      5-min Rain = 0
KSM1 251115Z 35007KT 06/01 A3018 RMK A01 T00560006  RH  071%=      5-min Rain = 0
KSM1 251120Z 32005KT 06/01 A3018 RMK A01 T00610007  RH  069%=      5-min Rain = 0
KSM1 251125Z 30005KT 06/01 A3019 RMK A01 T00600006  RH  069%=      5-min Rain = 0
KSM1 251130Z 33005KT 06/01 A3019 RMK A01 T00560006  RH  071%=      5-min Rain = 0
KSM1 251135Z 34006KT 05/01 A3019 RMK A01 T00520005  RH  073%=      5-min Rain = 0
KSM1 251140Z 35007KT 05/01 A3019 RMK A01 T00520005  RH  072%=      5-min Rain = 0
KSM1 251145Z 35007KT 06/01 A3019 RMK A01 T00560005  RH  071%=      5-min Rain = 0
KSM1 251150Z 36007KT 06/01 A3019 RMK A01 T00570005  RH  070%=      5-min Rain = 0
KSM1 251155Z 01007KT 06/01 A302 RMK A01 T00580006  RH  070%=      5-min Rain = 0
KSM1 251200Z 01006KT 06/01 A302 RMK A01 T00600009  RH  070%=      5-min Rain = 0
KSM1 251205Z 01005KT 06/01 A302 RMK A01 T00590008  RH  071%=      5-min Rain = 0
KSM1 251210Z 01006KT 06/01 A302 RMK A01 T00580009  RH  072%=      5-min Rain = 0
KSM1 251215Z 01007KT 06/01 A3021 RMK A01 T00560010  RH  073%=      5-min Rain = 0
KSM1 251220Z 00007KT 05/01 A3021 RMK A01 T00540009  RH  074%=      5-min Rain = 0
KSM1 251225Z 00007KT 05/01 A3021 RMK A01 T00520008  RH  074%=      5-min Rain = 0
KSM1 251230Z 01006KT 05/01 A3022 RMK A01 T00510008  RH  075%=      5-min Rain = 0
KSM1 251235Z 00006KT 05/01 A3022 RMK A01 T00490008  RH  076%=      5-min Rain = 0
KSM1 251240Z 00007KT 05/01 A3022 RMK A01 T00480009  RH  077%=      5-min Rain = 0
KSM1 251245Z 00006KT 05/01 A3022 RMK A01 T00480010  RH  078%=      5-min Rain = 0
KSM1 251250Z 35006KT 05/01 A3022 RMK A01 T00480012  RH  079%=      5-min Rain = 0
KSM1 251255Z 35007KT 05/02 A3022 RMK A01 T00500015  RH  079%=      5-min Rain = 0
KSM1 251300Z 35007KT 05/02 A3022 RMK A01 T00520017  RH  079%=      5-min Rain = 0
KSM1 251305Z 35007KT 05/02 A3022 RMK A01 T00540018  RH  079%=      5-min Rain = 0
KSM1 251310Z 35007KT 05/02 A3022 RMK A01 T00540019  RH  079%=      5-min Rain = 0
KSM1 251315Z 34006KT 06/02 A3022 RMK A01 T00570021  RH  079%=      5-min Rain = 0
KSM1 251320Z 35006KT 06/02 A3023 RMK A01 T00600023  RH  078%=      5-min Rain = 0
KSM1 251325Z 35007KT 06/03 A3023 RMK A01 T00630025  RH  078%=      5-min Rain = 0
KSM1 251330Z 35007KT 07/03 A3023 RMK A01 T00670028  RH  078%=      5-min Rain = 0
KSM1 251335Z 35006KT 07/03 A3023 RMK A01 T00710031  RH  077%=      5-min Rain = 0
KSM1 251340Z 35006KT 08/03 A3024 RMK A01 T00750033  RH  076%=      5-min Rain = 0
KSM1 251345Z 36006KT 08/04 A3023 RMK A01 T00790035  RH  076%=      5-min Rain = 0
KSM1 251350Z 36006KT 08/04 A3024 RMK A01 T00810037  RH  075%=      5-min Rain = 0
KSM1 251355Z 00005KT 09/04 A3024 RMK A01 T00850038  RH  074%=      5-min Rain = 0
KSM1 251400Z 01005KT 09/04 A3024 RMK A01 T00910042  RH  073%=      5-min Rain = 0
KSM1 251405Z 01006KT 10/04 A3024 RMK A01 T00950043  RH  072%=      5-min Rain = 0
KSM1 251410Z 02006KT 10/05 A3024 RMK A01 T00970045  RH  071%=      5-min Rain = 0
KSM1 251415Z 03005KT 10/05 A3025 RMK A01 T01000047  RH  071%=      5-min Rain = 0
KSM1 251420Z 03005KT 10/05 A3025 RMK A01 T01030048  RH  070%=      5-min Rain = 0
KSM1 251425Z 05005KT 11/05 A3025 RMK A01 T01070049  RH  069%=      5-min Rain = 0
KSM1 251430Z 06006KT 11/05 A3025 RMK A01 T01110050  RH  067%=      5-min Rain = 0
KSM1 251435Z 06006KT 11/05 A3025 RMK A01 T01140051  RH  066%=      5-min Rain = 0
KSM1 251440Z 07006KT 12/05 A3026 RMK A01 T01190051  RH  065%=      5-min Rain = 0
KSM1 251445Z 08007KT 12/05 A3026 RMK A01 T01240049  RH  062%=      5-min Rain = 0
KSM1 251450Z 08008KT 13/04 A3026 RMK A01 T01270044  RH  058%=      5-min Rain = 0
KSM1 251455Z 08008KT 13/04 A3026 RMK A01 T01290043  RH  057%=      5-min Rain = 0
KSM1 251500Z 08009KT 13/04 A3026 RMK A01 T01310043  RH  056%=      5-min Rain = 0
KSM1 251505Z 09008KT 13/04 A3027 RMK A01 T01330043  RH  055%=      5-min Rain = 0
KSM1 251510Z 09009KT 14/04 A3027 RMK A01 T01360041  RH  054%=      5-min Rain = 0
KSM1 251515Z 09010KT 14/04 A3027 RMK A01 T01370040  RH  053%=      5-min Rain = 0
KSM1 251520Z 10009G15KT 14/04 A3027 RMK A01 T01390041  RH  053%=      5-min Rain = 0
KSM1 251525Z 11012KT 14/04 A3028 RMK A01 T01420038  RH  051%=      5-min Rain = 0
KSM1 251530Z 10011KT 14/04 A3028 RMK A01 T01430040  RH  051%=      5-min Rain = 0
KSM1 251535Z 09012KT 14/04 A3028 RMK A01 T01420040  RH  051%=      5-min Rain = 0
KSM1 251540Z 09011KT 14/04 A3028 RMK A01 T01440043  RH  051%=      5-min Rain = 0
KSM1 251545Z 09011KT 14/04 A3028 RMK A01 T01440042  RH  051%=      5-min Rain = 0
KSM1 251550Z 09011KT 15/04 A3028 RMK A01 T01470042  RH  050%=      5-min Rain = 0
KSM1 251555Z 11009G14KT 15/04 A3029 RMK A01 T01490044  RH  050%=      5-min Rain = 0
KSM1 251600Z 09010G15KT 15/04 A3029 RMK A01 T01530042  RH  048%=      5-min Rain = 0
KSM1 251605Z 09011KT 15/04 A3029 RMK A01 T01540039  RH  047%=      5-min Rain = 0
KSM1 251610Z 09011KT 16/04 A3029 RMK A01 T01560040  RH  047%=      5-min Rain = 0
KSM1 251615Z 08011KT 16/04 A3029 RMK A01 T01550041  RH  047%=      5-min Rain = 0
KSM1 251620Z 08010KT 16/04 A3029 RMK A01 T01590043  RH  047%=      5-min Rain = 0
KSM1 251625Z 08009G14KT 16/05 A3029 RMK A01 T01620045  RH  047%=      5-min Rain = 0
KSM1 251630Z 08010KT 16/05 A3029 RMK A01 T01630045  RH  046%=      5-min Rain = 0
KSM1 251635Z 08010KT 16/04 A3029 RMK A01 T01610044  RH  046%=      5-min Rain = 0
KSM1 251640Z 09009KT 17/05 A3029 RMK A01 T01650046  RH  046%=      5-min Rain = 0
KSM1 251645Z 10010KT 16/05 A3029 RMK A01 T01640046  RH  046%=      5-min Rain = 0
KSM1 251650Z 10009KT 17/05 A3029 RMK A01 T01710047  RH  045%=      5-min Rain = 0
KSM1 251655Z 09010KT 17/05 A3029 RMK A01 T01670046  RH  045%=      5-min Rain = 0
KSM1 251700Z 09008KT 17/05 A3029 RMK A01 T01680047  RH  046%=      5-min Rain = 0
KSM1 251705Z 08008G14KT 17/05 A3029 RMK A01 T01720047  RH  044%=      5-min Rain = 0
KSM1 251710Z 07009KT 17/05 A3029 RMK A01 T01730047  RH  044%=      5-min Rain = 0
KSM1 251715Z 09009KT 18/05 A3029 RMK A01 T01770048  RH  043%=      5-min Rain = 0
KSM1 251720Z 10009KT 18/05 A3029 RMK A01 T01770047  RH  043%=      5-min Rain = 0
KSM1 251725Z 10008G13KT 18/05 A3028 RMK A01 T01780047  RH  043%=      5-min Rain = 0
KSM1 251730Z 09008KT 18/05 A3028 RMK A01 T01770045  RH  042%=      5-min Rain = 0
KSM1 251735Z 09008G13KT 18/04 A3028 RMK A01 T01800042  RH  041%=      5-min Rain = 0
KSM1 251740Z 08009G14KT 18/04 A3028 RMK A01 T01800043  RH  041%=      5-min Rain = 0
KSM1 251745Z 08008KT 18/04 A3028 RMK A01 T01790041  RH  041%=      5-min Rain = 0
KSM1 251750Z 07008KT 18/04 A3028 RMK A01 T01810038  RH  039%=      5-min Rain = 0
KSM1 251755Z 09007G12KT 18/04 A3028 RMK A01 T01820039  RH  039%=      5-min Rain = 0
KSM1 251800Z 07007G12KT 19/04 A3028 RMK A01 T01850040  RH  039%=      5-min Rain = 0
KSM1 251805Z 09010KT 19/04 A3028 RMK A01 T01870040  RH  038%=      5-min Rain = 0
KSM1 251810Z 12007G12KT 19/04 A3028 RMK A01 T01880039  RH  038%=      5-min Rain = 0
KSM1 251815Z 10009KT 19/03 A3027 RMK A01 T01920032  RH  035%=      5-min Rain = 0
KSM1 251820Z 06008KT 19/04 A3027 RMK A01 T01920035  RH  036%=      5-min Rain = 0
KSM1 251825Z 10009KT 20/03 A3027 RMK A01 T01950033  RH  035%=      5-min Rain = 0
KSM1 251830Z 09006G11KT 20/03 A3027 RMK A01 T01980033  RH  034%=      5-min Rain = 0
KSM1 251835Z 07008KT 20/03 A3027 RMK A01 T01960029  RH  034%=      5-min Rain = 0
KSM1 251840Z 06007KT 20/02 A3027 RMK A01 T01950024  RH  033%=      5-min Rain = 0
KSM1 251845Z 09006KT 20/03 A3027 RMK A01 T01990032  RH  034%=      5-min Rain = 0
KSM1 251850Z 08008G14KT 20/03 A3027 RMK A01 T02000028  RH  032%=      5-min Rain = 0
KSM1 251855Z 06008KT 20/02 A3027 RMK A01 T01980021  RH  031%=      5-min Rain = 0
KSM1 251900Z 08007G12KT 20/03 A3027 RMK A01 T02010025  RH  032%=      5-min Rain = 0
KSM1 251905Z 06009KT 20/03 A3026 RMK A01 T02020026  RH  032%=      5-min Rain = 0
KSM1 251910Z 07006G11KT 20/03 A3026 RMK A01 T01990027  RH  032%=      5-min Rain = 0
KSM1 251915Z 10006G11KT 20/03 A3026 RMK A01 T02010027  RH  032%=      5-min Rain = 0
KSM1 251920Z 09008G13KT 20/02 A3026 RMK A01 T02030023  RH  031%=      5-min Rain = 0
KSM1 251925Z 11009KT 20/02 A3026 RMK A01 T02040021  RH  030%=      5-min Rain = 0
KSM1 251930Z 10008KT 21/02 A3025 RMK A01 T02050023  RH  030%=      5-min Rain = 0
KSM1 251935Z 06008KT 21/02 A3025 RMK A01 T02080020  RH  029%=      5-min Rain = 0
KSM1 251940Z 06005KT 20/01 A3025 RMK A01 T02030013  RH  028%=      5-min Rain = 0
KSM1 251945Z 11003KT 21/02 A3025 RMK A01 T02060017  RH  029%=      5-min Rain = 0
KSM1 251950Z 11005G11KT 21/02 A3025 RMK A01 T02100016  RH  028%=      5-min Rain = 0
KSM1 251955Z 09005KT 21/02 A3025 RMK A01 T02120017  RH  028%=      5-min Rain = 0
KSM1 252000Z 08007KT 21/00 A3024 RMK A01 T02130004  RH  025%=      5-min Rain = 0
KSM1 252005Z 07005KT 21/M00 A3024 RMK A01 T02121001  RH  024%=      5-min Rain = 0
KSM1 252010Z 09003G13KT 22/00 A3024 RMK A01 T02170004  RH  025%=      5-min Rain = 0
KSM1 252015Z 08006KT 22/00 A3024 RMK A01 T02170004  RH  024%=      5-min Rain = 0
KSM1 252020Z 06004KT 22/01 A3024 RMK A01 T02150005  RH  025%=      5-min Rain = 0
KSM1 252025Z 08002G9KT 21/01 A3023 RMK A01 T02140006  RH  025%=      5-min Rain = 0
KSM1 252030Z 12006KT 22/01 A3023 RMK A01 T02180012  RH  026%=      5-min Rain = 0
KSM1 252035Z 12008KT 22/02 A3023 RMK A01 T02170017  RH  027%=      5-min Rain = 0
KSM1 252040Z 10004KT 22/01 A3023 RMK A01 T02160014  RH  027%=      5-min Rain = 0
KSM1 252045Z 07006G11KT 22/01 A3022 RMK A01 T02170012  RH  026%=      5-min Rain = 0
KSM1 252050Z 09007KT 22/01 A3022 RMK A01 T02160007  RH  025%=      5-min Rain = 0
KSM1 252055Z 07004KT 22/00 A3022 RMK A01 T02160002  RH  024%=      5-min Rain = 0
KSM1 252100Z 06002G7KT 22/00 A3022 RMK A01 T02150004  RH  025%=      5-min Rain = 0
KSM1 252105Z 13003KT 22/01 A3022 RMK A01 T02200010  RH  025%=      5-min Rain = 0
KSM1 252110Z 12006KT 22/01 A3022 RMK A01 T02220012  RH  025%=      5-min Rain = 0
KSM1 252115Z 06005KT 22/00 A3022 RMK A01 T02200003  RH  024%=      5-min Rain = 0
KSM1 252120Z 07002KT 22/00 A3021 RMK A01 T02200004  RH  024%=      5-min Rain = 0
KSM1 252125Z 13005G11KT 22/00 A3021 RMK A01 T02240004  RH  024%=      5-min Rain = 0
KSM1 252130Z 10005G11KT 22/00 A3021 RMK A01 T02210001  RH  023%=      5-min Rain = 0
KSM1 252135Z 08005KT 22/M00 A3021 RMK A01 T02181001  RH  023%=      5-min Rain = 0
KSM1 252140Z 06002KT 22/M00 A3021 RMK A01 T02201001  RH  023%=      5-min Rain = 0
KSM1 252145Z 11004G9KT 22/M00 A3021 RMK A01 T02211001  RH  023%=      5-min Rain = 0
KSM1 252150Z 07005G10KT 22/00 A3021 RMK A01 T02240000  RH  023%=      5-min Rain = 0
KSM1 252155Z 11004KT 22/M00 A3021 RMK A01 T02241003  RH  022%=      5-min Rain = 0
KSM1 252200Z 15002KT 22/M01 A3021 RMK A01 T02221009  RH  022%=      5-min Rain = 0
KSM1 252205Z 24001KT 22/M01 A3021 RMK A01 T02221012  RH  021%=      5-min Rain = 0
KSM1 252210Z 30002KT 22/M01 A3021 RMK A01 T02241007  RH  022%=      5-min Rain = 0
KSM1 252215Z 15003KT 23/M01 A3021 RMK A01 T02281013  RH  020%=      5-min Rain = 0
KSM1 252220Z 19002KT 23/M01 A3021 RMK A01 T02261008  RH  021%=      5-min Rain = 0
KSM1 252225Z 14005KT 22/00 A3021 RMK A01 T02220001  RH  023%=      5-min Rain = 0
KSM1 252230Z 09007KT 22/M00 A3021 RMK A01 T02191003  RH  023%=      5-min Rain = 0
KSM1 252235Z 08003KT 22/M01 A3021 RMK A01 T02171005  RH  023%=      5-min Rain = 0
KSM1 252240Z 09003KT 22/M01 A3021 RMK A01 T02181005  RH  023%=      5-min Rain = 0
KSM1 252245Z 10005KT 22/M00 A3021 RMK A01 T02201003  RH  023%=      5-min Rain = 0
KSM1 252250Z 08005KT 22/M00 A3021 RMK A01 T02221002  RH  023%=      5-min Rain = 0
KSM1 252255Z 10007KT 22/00 A3021 RMK A01 T022200-0  RH  023%=      5-min Rain = 0
KSM1 252300Z 10005KT 22/00 A3021 RMK A01 T02210001  RH  023%=      5-min Rain = 0
KSM1 252305Z 13003KT 22/M00 A3021 RMK A01 T02231002  RH  023%=      5-min Rain = 0
KSM1 252310Z 13003KT 22/M00 A3021 RMK A01 T02231002  RH  023%=      5-min Rain = 0
KSM1 252315Z 10007KT 22/00 A3021 RMK A01 T02230003  RH  024%=      5-min Rain = 0
KSM1 252320Z 10006KT 22/00 A3021 RMK A01 T02220002  RH  024%=      5-min Rain = 0
KSM1 252325Z 11006KT 22/00 A3021 RMK A01 T02220004  RH  024%=      5-min Rain = 0
KSM1 252330Z 13007KT 22/01 A3021 RMK A01 T02210012  RH  025%=      5-min Rain = 0
KSM1 252335Z 11008KT 22/01 A3021 RMK A01 T02210013  RH  026%=      5-min Rain = 0
KSM1 252340Z 10008KT 22/01 A3021 RMK A01 T02190010  RH  025%=      5-min Rain = 0
KSM1 252345Z 14007KT 22/01 A3021 RMK A01 T02190011  RH  025%=      5-min Rain = 0
KSM1 252350Z 13006KT 22/01 A3021 RMK A01 T02180012  RH  026%=      5-min Rain = 0
KSM1 252355Z 12008KT 22/01 A3021 RMK A01 T02170013  RH  026%=      5-min Rain = 0
KSM1 260000Z 12010KT 21/02 A3021 RMK A01 T02130017  RH  028%=      5-min Rain = 0
KSM1 260005Z 14010KT 21/02 A3021 RMK A01 T02110019  RH  028%=      5-min Rain = 0
KSM1 260010Z 14009KT 21/02 A3021 RMK A01 T02090018  RH  029%=      5-min Rain = 0
KSM1 260015Z 12010KT 21/02 A3021 RMK A01 T02080019  RH  029%=      5-min Rain = 0
KSM1 260020Z 12011KT 21/02 A3021 RMK A01 T02070019  RH  029%=      5-min Rain = 0
KSM1 260025Z 13011KT 20/02 A3021 RMK A01 T02040019  RH  030%=      5-min Rain = 0
KSM1 260030Z 12010KT 20/02 A3021 RMK A01 T02020019  RH  030%=      5-min Rain = 0
KSM1 260035Z 12010KT 20/02 A3021 RMK A01 T02000020  RH  031%=      5-min Rain = 0
KSM1 260040Z 12009KT 20/02 A3021 RMK A01 T01970020  RH  031%=      5-min Rain = 0
KSM1 260045Z 12008KT 19/02 A3021 RMK A01 T01940021  RH  032%=      5-min Rain = 0
KSM1 260050Z 11008KT 19/02 A3021 RMK A01 T01910021  RH  033%=      5-min Rain = 0
KSM1 260055Z 11008KT 19/02 A3021 RMK A01 T01870021  RH  033%=      5-min Rain = 0
KSM1 260100Z 11008KT 18/02 A3022 RMK A01 T01840021  RH  034%=      5-min Rain = 0
KSM1 260105Z 11008KT 18/02 A3022 RMK A01 T01790023  RH  036%=      5-min Rain = 0
KSM1 260110Z 11008KT 17/02 A3022 RMK A01 T01740024  RH  037%=      5-min Rain = 0
KSM1 260115Z 11008KT 17/02 A3022 RMK A01 T01710024  RH  038%=      5-min Rain = 0
KSM1 260120Z 11008KT 17/03 A3022 RMK A01 T01690025  RH  039%=      5-min Rain = 0
KSM1 260125Z 11009KT 17/03 A3022 RMK A01 T01670025  RH  039%=      5-min Rain = 0
KSM1 260130Z 11009KT 16/03 A3022 RMK A01 T01640025  RH  040%=      5-min Rain = 0
KSM1 260135Z 11008KT 16/03 A3022 RMK A01 T01620026  RH  041%=      5-min Rain = 0
KSM1 260140Z 12008KT 16/03 A3022 RMK A01 T01590026  RH  042%=      5-min Rain = 0
KSM1 260145Z 12008KT 15/03 A3022 RMK A01 T01540027  RH  043%=      5-min Rain = 0
KSM1 260150Z 11009KT 15/03 A3023 RMK A01 T01520027  RH  044%=      5-min Rain = 0
KSM1 260155Z 12009KT 15/03 A3023 RMK A01 T01520026  RH  043%=      5-min Rain = 0
KSM1 260200Z 12008KT 15/03 A3023 RMK A01 T01500026  RH  044%=      5-min Rain = 0
KSM1 260205Z 12009KT 15/03 A3023 RMK A01 T01480027  RH  045%=      5-min Rain = 0
KSM1 260210Z 11008KT 15/03 A3023 RMK A01 T01460027  RH  045%=      5-min Rain = 0
KSM1 260215Z 11009KT 15/03 A3023 RMK A01 T01450027  RH  046%=      5-min Rain = 0
KSM1 260220Z 11009KT 14/03 A3023 RMK A01 T01440028  RH  046%=      5-min Rain = 0
KSM1 260225Z 11008KT 14/03 A3024 RMK A01 T01420028  RH  047%=      5-min Rain = 0
KSM1 260230Z 12009KT 14/03 A3024 RMK A01 T01410028  RH  047%=      5-min Rain = 0
KSM1 260235Z 12008KT 14/03 A3024 RMK A01 T01390030  RH  049%=      5-min Rain = 0
KSM1 260240Z 12009KT 14/03 A3024 RMK A01 T01360030  RH  049%=      5-min Rain = 0
KSM1 260245Z 12009KT 14/03 A3024 RMK A01 T01350030  RH  050%=      5-min Rain = 0
KSM1 260250Z 12009KT 13/03 A3024 RMK A01 T01340031  RH  051%=      5-min Rain = 0
KSM1 260255Z 12009KT 13/03 A3025 RMK A01 T01320032  RH  052%=      5-min Rain = 0
KSM1 260300Z 11009KT 13/03 A3025 RMK A01 T01310033  RH  052%=      5-min Rain = 0
KSM1 260305Z 11009KT 13/03 A3025 RMK A01 T01310034  RH  053%=      5-min Rain = 0
KSM1 260310Z 11009KT 13/04 A3025 RMK A01 T01320035  RH  053%=      5-min Rain = 0
KSM1 260315Z 11009KT 13/04 A3025 RMK A01 T01320036  RH  053%=      5-min Rain = 0
KSM1 260320Z 11010KT 13/04 A3026 RMK A01 T01330037  RH  053%=      5-min Rain = 0
KSM1 260325Z 11010KT 13/04 A3026 RMK A01 T01330038  RH  054%=      5-min Rain = 0
KSM1 260330Z 11010KT 13/04 A3026 RMK A01 T01320039  RH  054%=      5-min Rain = 0
KSM1 260335Z 11010KT 13/04 A3026 RMK A01 T01300040  RH  055%=      5-min Rain = 0
KSM1 260340Z 11010KT 13/04 A3026 RMK A01 T01290040  RH  056%=      5-min Rain = 0
KSM1 260345Z 11009KT 13/04 A3026 RMK A01 T01290041  RH  056%=      5-min Rain = 0
KSM1 260350Z 11009KT 13/04 A3026 RMK A01 T01280041  RH  057%=      5-min Rain = 0
KSM1 260355Z 11008KT 13/04 A3027 RMK A01 T01250042  RH  058%=      5-min Rain = 0
KSM1 260400Z 11008KT 12/04 A3027 RMK A01 T01230042  RH  059%=      5-min Rain = 0
KSM1 260405Z 11008KT 12/04 A3027 RMK A01 T01220043  RH  060%=      5-min Rain = 0
KSM1 260410Z 12008KT 12/04 A3027 RMK A01 T01200044  RH  061%=      5-min Rain = 0
KSM1 260415Z 12009KT 12/04 A3027 RMK A01 T01190044  RH  061%=      5-min Rain = 0
KSM1 260420Z 12008KT 12/05 A3027 RMK A01 T01180045  RH  062%=      5-min Rain = 0
KSM1 260425Z 12008KT 12/05 A3027 RMK A01 T01150045  RH  063%=      5-min Rain = 0
KSM1 260430Z 12007KT 11/05 A3027 RMK A01 T01130045  RH  064%=      5-min Rain = 0
KSM1 260435Z 12007KT 11/05 A3027 RMK A01 T01110045  RH  065%=      5-min Rain = 0
KSM1 260440Z 12007KT 11/05 A3028 RMK A01 T01090045  RH  066%=      5-min Rain = 0
KSM1 260445Z 12007KT 11/05 A3027 RMK A01 T01080046  RH  067%=      5-min Rain = 0
KSM1 260450Z 12007KT 11/05 A3028 RMK A01 T01070046  RH  067%=      5-min Rain = 0
KSM1 260455Z 12007KT 11/05 A3028 RMK A01 T01050046  RH  068%=      5-min Rain = 0

Page generated in 0.0094 seconds.